Weather at Denio Junction Airport

Public forecast

Using degrees Fahrenheit for public forecast. Weather courtesy of forecast.io.

Closest aviation weather report (METAR) to Denio Junction Airport

Closest report is Rome State Airport, 50.0 nm (92.6 km) NE. Retrieved 2021/01/18 20:52 UTC (22 minutes ago):

KREO 182052Z AUTO 03007KT 350V050 06/M06 A3029 RMK AO1 SLP272 T00561061 58018

Closest aviation forecast (TAF) to Denio Junction Airport

Closest forecast is Winnemucca Municipal Airport, 73.6 nm (136.2 km) SSE. Retrieved 2021/01/18 18:36 UTC (3 hours ago):

TAF KWMC 181734Z 1818/1918 36006KT P6SM SCT150 BKN180 FM181900 02015G22KT P6SM FEW200 FM190000 02011G19KT P6SM FEW070 SCT200 FM190400 02015G22KT P6SM FEW070 FEW200 FM191100 03010KT P6SM SKC